Overview Statistics Trail Chart Weather Telemetry Raw packets
 

This is the latest recevied weather packets stored in our database for station/object WX5KDM. If no packets are shown the sender has not sent any weather packets the latest 10 day(s).

<< 91 92 93 94 95 96 97 >>
Time Temp. Humidity Pressure Rain* Wind** Luminosity Snow
1787945258 32.22° C 46% 1018 hPa 0 mm - - -
1787944958 32.22° C 47% 1018.4 hPa 0 mm - - -
1787944656 32.22° C 46% 1018.2 hPa 0 mm - - -
1787944352 32.78° C 45% 1018.3 hPa 0 mm - - -
1787944047 32.78° C 46% 1018.4 hPa 0 mm - - -
1787943742 32.22° C 48% 1018.3 hPa 0 mm - - -
1787943437 31.67° C 51% 1018.4 hPa 0 mm - - -
1787943132 32.78° C 48% 1018.5 hPa 0 mm - - -
1787942827 32.22° C 51% 1018.5 hPa 0 mm - - -
1787942522 32.22° C 50% 1018.5 hPa 0 mm - - -
1787942216 31.67° C 47% 1018.6 hPa 0 mm - - -
1787941911 31.67° C 46% 1018.8 hPa 0 mm - - -
1787941611 31.67° C 46% 1018.6 hPa 0 mm - - -
1787941310 31.67° C 47% 1018.5 hPa 0 mm - - -
1787941010 31.67° C 47% 1018.8 hPa 0 mm - - -
1787940709 32.22° C 44% 1018.8 hPa 0 mm - - -
1787940407 31.67° C 47% 1018.9 hPa 0 mm - - -
1787940102 31.67° C 47% 1018.8 hPa 0 mm - - -
1787939796 31.67° C 50% 1018.9 hPa 0 mm - - -
1787939490 31.67° C 46% 1019.1 hPa 0 mm - - -
1787939185 31.11° C 48% 1019 hPa 0 mm - - -
1787938880 31.11° C 48% 1019.1 hPa 0 mm - - -
1787938579 31.11° C 48% 1019.1 hPa 0 mm - - -
1787938275 31.11° C 49% 1019.2 hPa 0 mm - - -
1787937975 31.11° C 46% 1019.2 hPa 0 mm - - -

* Rain latest hour (hover to see other rain measurements)
** Current wind speed in m/s (hover to see current wind gust speed)